sensor_id;sensor_type;location;lat;lon;timestamp;pressure;altitude;pressure_sealevel;temperature;humidity
10261;BME280;5175;42.606;23.388;2022-09-12T00:02:22;93575.34;;;14.70;79.74
10261;BME280;5175;42.606;23.388;2022-09-12T00:04:49;93578.09;;;14.57;78.51
10261;BME280;5175;42.606;23.388;2022-09-12T00:07:16;93579.38;;;14.59;77.41
10261;BME280;5175;42.606;23.388;2022-09-12T00:09:43;93584.75;;;14.59;79.26
10261;BME280;5175;42.606;23.388;2022-09-12T00:12:11;93589.84;;;14.69;78.46
10261;BME280;5175;42.606;23.388;2022-09-12T00:14:38;93592.53;;;14.69;80.14
10261;BME280;5175;42.606;23.388;2022-09-12T00:17:04;93587.16;;;14.69;80.15
10261;BME280;5175;42.606;23.388;2022-09-12T00:19:31;93591.09;;;14.63;78.34
10261;BME280;5175;42.606;23.388;2022-09-12T00:21:58;93597.50;;;14.76;79.96
10261;BME280;5175;42.606;23.388;2022-09-12T00:24:24;93595.50;;;14.90;81.45
10261;BME280;5175;42.606;23.388;2022-09-12T00:26:51;93602.75;;;14.89;83.41
10261;BME280;5175;42.606;23.388;2022-09-12T00:29:20;93599.56;;;14.79;85.87
10261;BME280;5175;42.606;23.388;2022-09-12T00:31:47;93605.22;;;14.77;83.28
10261;BME280;5175;42.606;23.388;2022-09-12T00:34:14;93599.78;;;14.60;81.33
10261;BME280;5175;42.606;23.388;2022-09-12T00:36:41;93602.19;;;14.70;82.00
10261;BME280;5175;42.606;23.388;2022-09-12T00:39:09;93603.94;;;14.75;83.77
10261;BME280;5175;42.606;23.388;2022-09-12T00:41:37;93592.66;;;14.64;82.73
10261;BME280;5175;42.606;23.388;2022-09-12T00:47:11;93596.81;;;14.70;81.54
10261;BME280;5175;42.606;23.388;2022-09-12T00:49:42;93598.16;;;14.90;84.10
10261;BME280;5175;42.606;23.388;2022-09-12T00:52:12;93597.38;;;14.89;85.71
10261;BME280;5175;42.606;23.388;2022-09-12T00:54:42;93594.31;;;14.74;84.79
10261;BME280;5175;42.606;23.388;2022-09-12T00:57:12;93599.38;;;14.75;84.28
10261;BME280;5175;42.606;23.388;2022-09-12T00:59:43;93595.84;;;14.66;84.77
10261;BME280;5175;42.606;23.388;2022-09-12T01:02:14;93568.53;;;14.42;81.38
10261;BME280;5175;42.606;23.388;2022-09-12T01:04:41;93593.66;;;14.68;83.75
10261;BME280;5175;42.606;23.388;2022-09-12T01:07:09;93591.59;;;14.65;86.81
10261;BME280;5175;42.606;23.388;2022-09-12T01:09:36;93586.81;;;14.62;85.52
10261;BME280;5175;42.606;23.388;2022-09-12T01:12:04;93592.38;;;14.66;84.75
10261;BME280;5175;42.606;23.388;2022-09-12T01:14:32;93585.28;;;14.70;87.74
10261;BME280;5175;42.606;23.388;2022-09-12T01:16:59;93581.59;;;14.57;87.22
10261;BME280;5175;42.606;23.388;2022-09-12T01:22:50;93573.06;;;14.64;87.11
10261;BME280;5175;42.606;23.388;2022-09-12T01:25:24;93573.00;;;14.47;86.80
10261;BME280;5175;42.606;23.388;2022-09-12T01:28:15;93567.56;;;14.38;86.37
10261;BME280;5175;42.606;23.388;2022-09-12T01:30:47;93570.97;;;14.30;85.38
10261;BME280;5175;42.606;23.388;2022-09-12T01:33:34;93576.59;;;14.20;85.55
10261;BME280;5175;42.606;23.388;2022-09-12T01:36:14;93575.97;;;14.01;82.12
10261;BME280;5175;42.606;23.388;2022-09-12T01:38:46;93558.03;;;14.10;85.14
10261;BME280;5175;42.606;23.388;2022-09-12T01:41:22;93571.03;;;14.16;83.89
10261;BME280;5175;42.606;23.388;2022-09-12T01:43:56;93578.88;;;14.13;83.58
10261;BME280;5175;42.606;23.388;2022-09-12T01:46:31;93577.69;;;14.19;82.58
10261;BME280;5175;42.606;23.388;2022-09-12T01:49:06;93577.34;;;14.34;86.30
10261;BME280;5175;42.606;23.388;2022-09-12T01:51:40;93572.19;;;14.24;85.73
10261;BME280;5175;42.606;23.388;2022-09-12T01:54:09;93566.59;;;14.12;85.36
10261;BME280;5175;42.606;23.388;2022-09-12T01:56:39;93566.03;;;14.01;82.22
10261;BME280;5175;42.606;23.388;2022-09-12T01:59:13;93558.00;;;14.01;81.33
10261;BME280;5175;42.606;23.388;2022-09-12T02:01:46;93554.94;;;14.16;85.70
10261;BME280;5175;42.606;23.388;2022-09-12T02:04:17;93553.53;;;14.19;85.98
10261;BME280;5175;42.606;23.388;2022-09-12T02:06:48;93552.00;;;14.26;87.35
10261;BME280;5175;42.606;23.388;2022-09-12T02:09:20;93562.19;;;14.16;84.79
10261;BME280;5175;42.606;23.388;2022-09-12T02:11:50;93565.88;;;14.20;85.91
10261;BME280;5175;42.606;23.388;2022-09-12T02:14:21;93561.66;;;14.27;87.44
10261;BME280;5175;42.606;23.388;2022-09-12T02:16:53;93566.03;;;14.23;88.48
10261;BME280;5175;42.606;23.388;2022-09-12T02:19:23;93562.50;;;14.14;87.10
10261;BME280;5175;42.606;23.388;2022-09-12T02:21:53;93564.06;;;14.15;85.80
10261;BME280;5175;42.606;23.388;2022-09-12T02:24:21;93574.13;;;14.10;86.63
10261;BME280;5175;42.606;23.388;2022-09-12T02:26:54;93571.44;;;14.10;86.35
10261;BME280;5175;42.606;23.388;2022-09-12T02:29:22;93572.63;;;14.17;84.97
10261;BME280;5175;42.606;23.388;2022-09-12T02:31:55;93559.31;;;14.12;87.19
10261;BME280;5175;42.606;23.388;2022-09-12T02:34:31;93574.84;;;14.37;88.74
10261;BME280;5175;42.606;23.388;2022-09-12T02:37:06;93577.44;;;14.29;89.26
10261;BME280;5175;42.606;23.388;2022-09-12T02:39:38;93572.91;;;14.16;85.68
10261;BME280;5175;42.606;23.388;2022-09-12T02:42:05;93578.59;;;14.14;89.05
10261;BME280;5175;42.606;23.388;2022-09-12T02:44:32;93578.09;;;14.12;86.64
10261;BME280;5175;42.606;23.388;2022-09-12T02:47:05;93583.03;;;14.19;88.16
10261;BME280;5175;42.606;23.388;2022-09-12T02:49:34;93578.72;;;14.09;87.03
10261;BME280;5175;42.606;23.388;2022-09-12T02:52:01;93573.53;;;14.13;88.00
10261;BME280;5175;42.606;23.388;2022-09-12T02:54:29;93575.78;;;13.97;84.64
10261;BME280;5175;42.606;23.388;2022-09-12T02:56:56;93574.09;;;14.01;84.45
10261;BME280;5175;42.606;23.388;2022-09-12T02:59:23;93574.25;;;14.05;84.82
10261;BME280;5175;42.606;23.388;2022-09-12T03:02:04;93587.50;;;14.23;89.80
10261;BME280;5175;42.606;23.388;2022-09-12T03:04:47;93580.03;;;14.20;88.80
10261;BME280;5175;42.606;23.388;2022-09-12T03:07:29;93582.97;;;14.10;79.72
10261;BME280;5175;42.606;23.388;2022-09-12T03:10:07;93589.06;;;14.02;83.79
10261;BME280;5175;42.606;23.388;2022-09-12T03:12:46;93601.06;;;14.05;83.76
10261;BME280;5175;42.606;23.388;2022-09-12T03:15:27;93604.09;;;13.90;83.06
10261;BME280;5175;42.606;23.388;2022-09-12T03:18:06;93605.56;;;14.09;84.02
10261;BME280;5175;42.606;23.388;2022-09-12T03:20:44;93609.63;;;14.07;83.99
10261;BME280;5175;42.606;23.388;2022-09-12T03:23:20;93594.03;;;14.31;86.85
10261;BME280;5175;42.606;23.388;2022-09-12T03:25:53;93588.41;;;14.19;86.03
10261;BME280;5175;42.606;23.388;2022-09-12T03:28:21;93589.56;;;14.04;83.66
10261;BME280;5175;42.606;23.388;2022-09-12T03:30:49;93586.63;;;13.92;82.57
10261;BME280;5175;42.606;23.388;2022-09-12T03:33:22;93591.00;;;13.88;81.52
10261;BME280;5175;42.606;23.388;2022-09-12T03:35:49;93586.00;;;13.73;78.63
10261;BME280;5175;42.606;23.388;2022-09-12T03:38:18;93592.81;;;13.79;77.94
10261;BME280;5175;42.606;23.388;2022-09-12T03:40:44;93580.47;;;13.92;81.10
10261;BME280;5175;42.606;23.388;2022-09-12T03:43:11;93591.81;;;13.89;81.04
10261;BME280;5175;42.606;23.388;2022-09-12T03:45:38;93594.00;;;13.87;80.01
10261;BME280;5175;42.606;23.388;2022-09-12T03:48:05;93584.56;;;13.89;79.21
10261;BME280;5175;42.606;23.388;2022-09-12T03:50:33;93589.94;;;13.89;80.74
10261;BME280;5175;42.606;23.388;2022-09-12T03:53:00;93584.16;;;13.82;77.51
10261;BME280;5175;42.606;23.388;2022-09-12T03:55:27;93585.97;;;14.09;84.56
10261;BME280;5175;42.606;23.388;2022-09-12T03:57:54;93592.06;;;14.01;80.70
10261;BME280;5175;42.606;23.388;2022-09-12T04:00:22;93593.78;;;13.97;76.36
10261;BME280;5175;42.606;23.388;2022-09-12T04:02:52;93584.63;;;13.98;77.13
10261;BME280;5175;42.606;23.388;2022-09-12T04:05:20;93600.69;;;13.75;79.22
10261;BME280;5175;42.606;23.388;2022-09-12T04:07:48;93597.97;;;13.89;78.30
10261;BME280;5175;42.606;23.388;2022-09-12T04:10:15;93588.47;;;13.69;73.45
10261;BME280;5175;42.606;23.388;2022-09-12T04:12:42;93579.25;;;13.62;78.78
10261;BME280;5175;42.606;23.388;2022-09-12T04:15:09;93591.25;;;13.78;79.57
10261;BME280;5175;42.606;23.388;2022-09-12T04:17:36;93596.59;;;13.78;78.49
10261;BME280;5175;42.606;23.388;2022-09-12T04:20:03;93606.44;;;13.69;77.45
10261;BME280;5175;42.606;23.388;2022-09-12T04:22:31;93603.38;;;13.75;79.59
10261;BME280;5175;42.606;23.388;2022-09-12T04:24:59;93592.44;;;13.72;80.61
10261;BME280;5175;42.606;23.388;2022-09-12T04:27:26;93598.19;;;13.79;83.97
10261;BME280;5175;42.606;23.388;2022-09-12T04:29:53;93600.09;;;13.78;84.04
10261;BME280;5175;42.606;23.388;2022-09-12T04:32:20;93600.38;;;13.77;81.13
10261;BME280;5175;42.606;23.388;2022-09-12T04:34:47;93609.22;;;13.77;81.31
10261;BME280;5175;42.606;23.388;2022-09-12T04:37:14;93606.72;;;13.81;80.03
10261;BME280;5175;42.606;23.388;2022-09-12T04:39:41;93610.28;;;13.90;79.91
10261;BME280;5175;42.606;23.388;2022-09-12T04:42:09;93623.28;;;13.97;82.53
10261;BME280;5175;42.606;23.388;2022-09-12T04:44:36;93614.84;;;13.90;73.78
10261;BME280;5175;42.606;23.388;2022-09-12T04:47:03;93610.41;;;14.07;78.16
10261;BME280;5175;42.606;23.388;2022-09-12T04:49:29;93605.47;;;14.23;83.07
10261;BME280;5175;42.606;23.388;2022-09-12T04:51:56;93614.44;;;14.32;84.37
10261;BME280;5175;42.606;23.388;2022-09-12T04:54:23;93620.06;;;14.30;84.92
10261;BME280;5175;42.606;23.388;2022-09-12T04:56:50;93612.28;;;14.43;84.54
10261;BME280;5175;42.606;23.388;2022-09-12T04:59:20;93616.63;;;14.52;83.18
10261;BME280;5175;42.606;23.388;2022-09-12T05:01:48;93622.06;;;14.69;83.51
10261;BME280;5175;42.606;23.388;2022-09-12T05:04:14;93615.16;;;14.77;85.19
10261;BME280;5175;42.606;23.388;2022-09-12T05:06:42;93617.25;;;14.80;83.60
10261;BME280;5175;42.606;23.388;2022-09-12T05:09:11;93616.22;;;14.67;83.54
10261;BME280;5175;42.606;23.388;2022-09-12T05:11:40;93616.31;;;14.84;86.50
10261;BME280;5175;42.606;23.388;2022-09-12T05:14:08;93606.69;;;14.83;85.79
10261;BME280;5175;42.606;23.388;2022-09-12T05:16:37;93611.00;;;14.93;86.91
10261;BME280;5175;42.606;23.388;2022-09-12T05:19:05;93624.16;;;15.03;83.89
10261;BME280;5175;42.606;23.388;2022-09-12T05:21:33;93606.31;;;15.07;86.51
10261;BME280;5175;42.606;23.388;2022-09-12T05:24:00;93618.50;;;15.04;86.00
10261;BME280;5175;42.606;23.388;2022-09-12T05:26:27;93620.72;;;15.11;86.58
10261;BME280;5175;42.606;23.388;2022-09-12T05:28:55;93623.44;;;15.20;86.76
10261;BME280;5175;42.606;23.388;2022-09-12T05:31:23;93616.66;;;15.22;87.63
10261;BME280;5175;42.606;23.388;2022-09-12T05:33:54;93624.06;;;15.17;87.98
10261;BME280;5175;42.606;23.388;2022-09-12T05:36:22;93621.06;;;15.18;87.83
10261;BME280;5175;42.606;23.388;2022-09-12T05:38:49;93612.38;;;15.21;89.99
10261;BME280;5175;42.606;23.388;2022-09-12T05:41:17;93599.28;;;15.28;90.27
10261;BME280;5175;42.606;23.388;2022-09-12T05:43:45;93613.03;;;15.27;91.01
10261;BME280;5175;42.606;23.388;2022-09-12T05:46:14;93609.31;;;15.45;91.46
10261;BME280;5175;42.606;23.388;2022-09-12T05:48:43;93605.53;;;15.46;92.10
10261;BME280;5175;42.606;23.388;2022-09-12T05:51:12;93602.22;;;15.49;92.09
10261;BME280;5175;42.606;23.388;2022-09-12T05:53:42;93604.13;;;15.57;93.35
10261;BME280;5175;42.606;23.388;2022-09-12T05:56:10;93598.28;;;15.55;92.78
10261;BME280;5175;42.606;23.388;2022-09-12T05:58:39;93608.44;;;15.75;94.34
10261;BME280;5175;42.606;23.388;2022-09-12T06:01:09;93600.50;;;15.53;92.68
10261;BME280;5175;42.606;23.388;2022-09-12T06:03:39;93605.56;;;15.63;93.29
10261;BME280;5175;42.606;23.388;2022-09-12T06:06:06;93597.22;;;15.73;93.65
10261;BME280;5175;42.606;23.388;2022-09-12T06:08:35;93593.91;;;15.76;93.86
10261;BME280;5175;42.606;23.388;2022-09-12T06:11:03;93598.63;;;15.71;93.71
10261;BME280;5175;42.606;23.388;2022-09-12T06:13:30;93586.44;;;15.64;93.57
10261;BME280;5175;42.606;23.388;2022-09-12T06:16:02;93574.28;;;15.76;94.00
10261;BME280;5175;42.606;23.388;2022-09-12T06:18:30;93591.22;;;16.10;94.69
10261;BME280;5175;42.606;23.388;2022-09-12T06:20:56;93589.47;;;16.23;94.75
10261;BME280;5175;42.606;23.388;2022-09-12T06:23:27;93571.91;;;16.17;94.85
10261;BME280;5175;42.606;23.388;2022-09-12T06:25:58;93584.06;;;16.57;94.88
10261;BME280;5175;42.606;23.388;2022-09-12T06:28:25;93584.03;;;16.74;94.88
10261;BME280;5175;42.606;23.388;2022-09-12T06:30:52;93592.91;;;16.75;94.18
10261;BME280;5175;42.606;23.388;2022-09-12T06:33:19;93596.41;;;16.67;94.02
10261;BME280;5175;42.606;23.388;2022-09-12T06:35:46;93601.03;;;16.41;94.08
10261;BME280;5175;42.606;23.388;2022-09-12T06:38:13;93594.84;;;16.40;94.33
10261;BME280;5175;42.606;23.388;2022-09-12T06:40:41;93609.88;;;16.41;93.91
10261;BME280;5175;42.606;23.388;2022-09-12T06:43:11;93609.88;;;16.41;94.42
10261;BME280;5175;42.606;23.388;2022-09-12T06:45:39;93622.41;;;16.46;94.22
10261;BME280;5175;42.606;23.388;2022-09-12T06:48:05;93615.59;;;16.65;94.18
10261;BME280;5175;42.606;23.388;2022-09-12T06:50:32;93623.03;;;16.60;93.86
10261;BME280;5175;42.606;23.388;2022-09-12T06:52:59;93619.38;;;16.81;93.73
10261;BME280;5175;42.606;23.388;2022-09-12T06:55:26;93627.56;;;17.02;93.43
10261;BME280;5175;42.606;23.388;2022-09-12T06:57:53;93622.03;;;16.90;93.64
10261;BME280;5175;42.606;23.388;2022-09-12T07:00:21;93629.00;;;17.00;93.59
10261;BME280;5175;42.606;23.388;2022-09-12T07:02:52;93630.63;;;16.75;93.85
10261;BME280;5175;42.606;23.388;2022-09-12T07:05:19;93632.97;;;16.85;94.25
10261;BME280;5175;42.606;23.388;2022-09-12T07:07:46;93633.88;;;17.06;94.07
10261;BME280;5175;42.606;23.388;2022-09-12T07:10:13;93630.56;;;17.01;94.06
10261;BME280;5175;42.606;23.388;2022-09-12T07:12:40;93638.69;;;17.38;93.96
10261;BME280;5175;42.606;23.388;2022-09-12T07:15:08;93647.56;;;17.39;93.08
10261;BME280;5175;42.606;23.388;2022-09-12T07:17:36;93645.81;;;17.43;93.38
10261;BME280;5175;42.606;23.388;2022-09-12T07:20:04;93644.66;;;17.61;93.99
10261;BME280;5175;42.606;23.388;2022-09-12T07:22:31;93651.69;;;17.45;93.58
10261;BME280;5175;42.606;23.388;2022-09-12T07:24:57;93640.59;;;17.38;93.46
10261;BME280;5175;42.606;23.388;2022-09-12T07:27:24;93636.78;;;17.39;91.89
10261;BME280;5175;42.606;23.388;2022-09-12T07:29:51;93658.41;;;17.22;91.98
10261;BME280;5175;42.606;23.388;2022-09-12T07:32:17;93656.38;;;17.19;92.42
10261;BME280;5175;42.606;23.388;2022-09-12T07:34:46;93655.34;;;17.40;93.27
10261;BME280;5175;42.606;23.388;2022-09-12T07:37:14;93657.81;;;17.63;91.46
10261;BME280;5175;42.606;23.388;2022-09-12T07:39:41;93659.50;;;17.76;89.98
10261;BME280;5175;42.606;23.388;2022-09-12T07:42:07;93661.22;;;17.34;90.97
10261;BME280;5175;42.606;23.388;2022-09-12T07:44:35;93644.75;;;17.35;92.08
10261;BME280;5175;42.606;23.388;2022-09-12T07:47:02;93650.94;;;17.74;90.04
10261;BME280;5175;42.606;23.388;2022-09-12T07:49:29;93660.09;;;17.81;88.39
10261;BME280;5175;42.606;23.388;2022-09-12T07:51:57;93661.22;;;18.09;86.57
10261;BME280;5175;42.606;23.388;2022-09-12T07:54:24;93670.31;;;18.26;84.18
10261;BME280;5175;42.606;23.388;2022-09-12T07:56:50;93658.13;;;18.40;85.49
10261;BME280;5175;42.606;23.388;2022-09-12T07:59:17;93661.25;;;18.51;83.42
10261;BME280;5175;42.606;23.388;2022-09-12T08:01:44;93656.81;;;18.67;82.66
10261;BME280;5175;42.606;23.388;2022-09-12T08:04:11;93655.44;;;18.82;81.08
10261;BME280;5175;42.606;23.388;2022-09-12T08:06:38;93668.19;;;18.93;81.01
10261;BME280;5175;42.606;23.388;2022-09-12T08:09:06;93665.41;;;18.69;82.31
10261;BME280;5175;42.606;23.388;2022-09-12T08:11:33;93656.03;;;18.87;79.73
10261;BME280;5175;42.606;23.388;2022-09-12T08:14:00;93664.75;;;18.51;84.48
10261;BME280;5175;42.606;23.388;2022-09-12T08:16:29;93668.56;;;18.71;83.10
10261;BME280;5175;42.606;23.388;2022-09-12T08:18:56;93674.63;;;19.01;84.07
10261;BME280;5175;42.606;23.388;2022-09-12T08:21:24;93681.72;;;18.93;80.10
10261;BME280;5175;42.606;23.388;2022-09-12T08:23:52;93675.34;;;19.10;81.15
10261;BME280;5175;42.606;23.388;2022-09-12T08:26:21;93678.28;;;19.50;78.27
10261;BME280;5175;42.606;23.388;2022-09-12T08:28:48;93658.78;;;19.80;76.10
10261;BME280;5175;42.606;23.388;2022-09-12T08:31:16;93681.69;;;19.83;74.41
10261;BME280;5175;42.606;23.388;2022-09-12T08:33:44;93685.19;;;19.83;73.34
10261;BME280;5175;42.606;23.388;2022-09-12T08:36:12;93668.69;;;19.52;74.35
10261;BME280;5175;42.606;23.388;2022-09-12T08:38:42;93671.44;;;19.88;75.67
10261;BME280;5175;42.606;23.388;2022-09-12T08:41:14;93677.44;;;19.82;74.06
10261;BME280;5175;42.606;23.388;2022-09-12T08:44:00;93677.41;;;19.94;72.80
10261;BME280;5175;42.606;23.388;2022-09-12T08:46:35;93671.56;;;20.04;72.99
10261;BME280;5175;42.606;23.388;2022-09-12T08:49:08;93677.97;;;20.12;74.31
10261;BME280;5175;42.606;23.388;2022-09-12T08:51:36;93677.63;;;20.01;72.05
10261;BME280;5175;42.606;23.388;2022-09-12T08:54:19;93661.59;;;20.20;71.71
10261;BME280;5175;42.606;23.388;2022-09-12T08:56:47;93665.91;;;19.97;71.40
10261;BME280;5175;42.606;23.388;2022-09-12T08:59:15;93664.09;;;20.01;72.04
10261;BME280;5175;42.606;23.388;2022-09-12T09:01:43;93659.94;;;19.79;73.41
10261;BME280;5175;42.606;23.388;2022-09-12T09:04:23;93672.69;;;19.91;72.42
10261;BME280;5175;42.606;23.388;2022-09-12T09:07:07;93667.94;;;20.00;70.98
10261;BME280;5175;42.606;23.388;2022-09-12T09:09:48;93659.91;;;19.43;73.80
10261;BME280;5175;42.606;23.388;2022-09-12T09:12:22;93650.59;;;19.20;75.80
10261;BME280;5175;42.606;23.388;2022-09-12T09:15:05;93662.47;;;18.95;73.42
10261;BME280;5175;42.606;23.388;2022-09-12T09:17:40;93652.22;;;18.67;76.61
10261;BME280;5175;42.606;23.388;2022-09-12T09:20:14;93648.19;;;18.73;74.79
10261;BME280;5175;42.606;23.388;2022-09-12T09:22:46;93639.41;;;18.77;74.67
10261;BME280;5175;42.606;23.388;2022-09-12T09:25:18;93623.44;;;18.84;76.64
10261;BME280;5175;42.606;23.388;2022-09-12T09:27:49;93633.00;;;19.26;76.24
10261;BME280;5175;42.606;23.388;2022-09-12T09:30:19;93636.00;;;19.57;75.44
10261;BME280;5175;42.606;23.388;2022-09-12T09:32:50;93640.41;;;19.86;72.00
10261;BME280;5175;42.606;23.388;2022-09-12T09:35:22;93648.97;;;19.88;69.57
10261;BME280;5175;42.606;23.388;2022-09-12T09:38:00;93649.09;;;20.04;69.70
10261;BME280;5175;42.606;23.388;2022-09-12T09:40:34;93652.81;;;19.75;70.15
10261;BME280;5175;42.606;23.388;2022-09-12T09:43:15;93648.78;;;19.69;70.65
10261;BME280;5175;42.606;23.388;2022-09-12T09:45:45;93646.72;;;20.02;70.55
10261;BME280;5175;42.606;23.388;2022-09-12T09:48:16;93647.06;;;20.00;69.89
10261;BME280;5175;42.606;23.388;2022-09-12T09:50:45;93634.88;;;19.82;69.77
10261;BME280;5175;42.606;23.388;2022-09-12T09:53:23;93646.94;;;20.09;68.79
10261;BME280;5175;42.606;23.388;2022-09-12T09:55:52;93641.19;;;20.11;66.74
10261;BME280;5175;42.606;23.388;2022-09-12T09:58:28;93648.19;;;20.12;68.62
10261;BME280;5175;42.606;23.388;2022-09-12T10:00:59;93631.28;;;20.03;68.31
10261;BME280;5175;42.606;23.388;2022-09-12T10:03:31;93631.81;;;20.32;67.95
10261;BME280;5175;42.606;23.388;2022-09-12T10:06:00;93629.03;;;19.92;67.52
10261;BME280;5175;42.606;23.388;2022-09-12T10:08:28;93626.88;;;20.10;68.48
10261;BME280;5175;42.606;23.388;2022-09-12T10:10:58;93630.81;;;20.25;68.04
10261;BME280;5175;42.606;23.388;2022-09-12T10:13:50;93619.06;;;20.60;68.48
10261;BME280;5175;42.606;23.388;2022-09-12T10:16:21;93637.06;;;20.53;66.03
10261;BME280;5175;42.606;23.388;2022-09-12T10:18:49;93628.06;;;20.37;66.52
10261;BME280;5175;42.606;23.388;2022-09-12T10:21:27;93603.41;;;20.54;66.66
10261;BME280;5175;42.606;23.388;2022-09-12T10:24:03;93629.94;;;21.04;65.22
10261;BME280;5175;42.606;23.388;2022-09-12T10:26:33;93632.53;;;19.81;67.69
10261;BME280;5175;42.606;23.388;2022-09-12T10:29:05;93629.44;;;20.07;70.25
10261;BME280;5175;42.606;23.388;2022-09-12T10:31:45;93632.50;;;20.05;68.02
10261;BME280;5175;42.606;23.388;2022-09-12T10:34:25;93642.34;;;19.61;68.39
10261;BME280;5175;42.606;23.388;2022-09-12T10:37:00;93640.97;;;19.67;69.06
10261;BME280;5175;42.606;23.388;2022-09-12T10:39:28;93639.84;;;19.68;69.53
10261;BME280;5175;42.606;23.388;2022-09-12T10:41:55;93634.19;;;19.85;69.74
10261;BME280;5175;42.606;23.388;2022-09-12T10:44:24;93626.09;;;19.97;68.94
10261;BME280;5175;42.606;23.388;2022-09-12T10:46:53;93629.91;;;20.60;69.59
10261;BME280;5175;42.606;23.388;2022-09-12T10:49:23;93642.00;;;20.63;67.21
10261;BME280;5175;42.606;23.388;2022-09-12T10:51:50;93623.78;;;20.36;66.75
10261;BME280;5175;42.606;23.388;2022-09-12T10:54:21;93633.94;;;20.39;68.11
10261;BME280;5175;42.606;23.388;2022-09-12T11:00:01;93637.94;;;20.57;65.35
10261;BME280;5175;42.606;23.388;2022-09-12T11:02:39;93643.09;;;20.74;65.32
10261;BME280;5175;42.606;23.388;2022-09-12T11:05:14;93626.00;;;21.01;68.60
10261;BME280;5175;42.606;23.388;2022-09-12T11:07:45;93635.16;;;20.53;67.48
10261;BME280;5175;42.606;23.388;2022-09-12T11:10:33;93615.91;;;21.14;66.60
10261;BME280;5175;42.606;23.388;2022-09-12T11:13:14;93625.06;;;21.53;61.32
10261;BME280;5175;42.606;23.388;2022-09-12T11:15:59;93629.94;;;21.78;62.69
10261;BME280;5175;42.606;23.388;2022-09-12T11:18:39;93617.06;;;21.44;61.92
10261;BME280;5175;42.606;23.388;2022-09-12T11:21:21;93616.75;;;21.46;61.25
10261;BME280;5175;42.606;23.388;2022-09-12T11:24:14;93607.69;;;21.73;60.57
10261;BME280;5175;42.606;23.388;2022-09-12T11:27:00;93602.03;;;21.47;59.00
10261;BME280;5175;42.606;23.388;2022-09-12T11:29:40;93604.38;;;21.79;57.55
10261;BME280;5175;42.606;23.388;2022-09-12T11:32:31;93616.47;;;21.51;58.08
10261;BME280;5175;42.606;23.388;2022-09-12T11:35:11;93564.09;;;21.50;58.00
10261;BME280;5175;42.606;23.388;2022-09-12T11:38:03;93615.31;;;21.83;56.25
10261;BME280;5175;42.606;23.388;2022-09-12T11:40:39;93606.69;;;21.46;55.93
10261;BME280;5175;42.606;23.388;2022-09-12T11:43:21;93600.03;;;21.44;58.17
10261;BME280;5175;42.606;23.388;2022-09-12T11:45:51;93609.97;;;21.40;58.92
10261;BME280;5175;42.606;23.388;2022-09-12T11:48:33;93606.91;;;21.10;59.01
10261;BME280;5175;42.606;23.388;2022-09-12T11:51:22;93600.44;;;21.30;60.18
10261;BME280;5175;42.606;23.388;2022-09-12T11:54:00;93603.78;;;21.55;59.54
10261;BME280;5175;42.606;23.388;2022-09-12T11:56:29;93605.63;;;21.66;59.75
10261;BME280;5175;42.606;23.388;2022-09-12T11:58:59;93597.00;;;21.96;61.10
10261;BME280;5175;42.606;23.388;2022-09-12T12:01:31;93600.88;;;21.79;59.71
10261;BME280;5175;42.606;23.388;2022-09-12T12:04:00;93616.38;;;21.32;58.91
10261;BME280;5175;42.606;23.388;2022-09-12T12:06:44;93620.22;;;21.15;63.06
10261;BME280;5175;42.606;23.388;2022-09-12T12:09:12;93612.25;;;21.38;59.98
10261;BME280;5175;42.606;23.388;2022-09-12T12:11:44;93601.69;;;21.05;57.83
10261;BME280;5175;42.606;23.388;2022-09-12T12:14:16;93613.31;;;21.17;58.98
10261;BME280;5175;42.606;23.388;2022-09-12T12:16:44;93619.03;;;21.59;57.33
10261;BME280;5175;42.606;23.388;2022-09-12T12:19:30;93626.59;;;21.07;56.23
10261;BME280;5175;42.606;23.388;2022-09-12T12:22:06;93620.28;;;20.35;57.25
10261;BME280;5175;42.606;23.388;2022-09-12T12:24:34;93624.44;;;20.45;57.87
10261;BME280;5175;42.606;23.388;2022-09-12T12:27:23;93601.28;;;20.75;56.65
10261;BME280;5175;42.606;23.388;2022-09-12T12:29:50;93620.22;;;20.87;56.40
10261;BME280;5175;42.606;23.388;2022-09-12T12:35:37;93602.28;;;21.10;59.35
10261;BME280;5175;42.606;23.388;2022-09-12T12:38:25;93597.56;;;21.39;58.11
10261;BME280;5175;42.606;23.388;2022-09-12T12:40:53;93609.25;;;21.11;55.94
10261;BME280;5175;42.606;23.388;2022-09-12T12:43:36;93614.44;;;20.33;58.52
10261;BME280;5175;42.606;23.388;2022-09-12T12:46:08;93601.94;;;20.44;59.47
10261;BME280;5175;42.606;23.388;2022-09-12T12:48:59;93594.16;;;20.98;62.01
10261;BME280;5175;42.606;23.388;2022-09-12T12:51:46;93607.91;;;21.64;58.13
10261;BME280;5175;42.606;23.388;2022-09-12T12:54:46;93591.16;;;21.94;56.47
10261;BME280;5175;42.606;23.388;2022-09-12T12:57:37;93614.94;;;22.51;53.61
10261;BME280;5175;42.606;23.388;2022-09-12T13:00:23;93604.63;;;22.40;51.73
10261;BME280;5175;42.606;23.388;2022-09-12T13:02:55;93614.50;;;22.14;54.04
10261;BME280;5175;42.606;23.388;2022-09-12T13:05:25;93610.75;;;22.18;53.47
10261;BME280;5175;42.606;23.388;2022-09-12T13:07:55;93617.19;;;22.29;54.41
10261;BME280;5175;42.606;23.388;2022-09-12T13:10:26;93593.25;;;22.54;57.58
10261;BME280;5175;42.606;23.388;2022-09-12T13:12:56;93618.91;;;22.37;54.92
10261;BME280;5175;42.606;23.388;2022-09-12T13:15:46;93619.16;;;22.48;53.63
10261;BME280;5175;42.606;23.388;2022-09-12T13:18:17;93599.47;;;22.55;53.02
10261;BME280;5175;42.606;23.388;2022-09-12T13:20:47;93600.72;;;22.22;55.74
10261;BME280;5175;42.606;23.388;2022-09-12T13:23:25;93619.09;;;21.32;56.05
10261;BME280;5175;42.606;23.388;2022-09-12T13:25:54;93620.00;;;21.67;55.09
10261;BME280;5175;42.606;23.388;2022-09-12T13:28:23;93619.09;;;21.04;56.09
10261;BME280;5175;42.606;23.388;2022-09-12T13:30:56;93617.94;;;20.62;57.43
10261;BME280;5175;42.606;23.388;2022-09-12T13:33:30;93620.53;;;20.30;60.04
10261;BME280;5175;42.606;23.388;2022-09-12T13:36:19;93616.44;;;20.36;60.69